createdAt,value
2019-05-21T00:02:06.599Z,96.90
2019-05-21T00:04:36.371Z,97.10
2019-05-21T00:07:06.372Z,97.20
2019-05-21T00:09:36.349Z,97.40
2019-05-21T00:12:06.303Z,97.30
2019-05-21T00:14:36.236Z,97.40
2019-05-21T00:17:05.887Z,97.50
2019-05-21T00:19:35.676Z,97.60
2019-05-21T00:22:05.339Z,97.70
2019-05-21T00:24:35.134Z,97.40
2019-05-21T00:27:15.511Z,97.40
2019-05-21T00:30:22.769Z,97.50
2019-05-21T00:33:29.107Z,97.30
2019-05-21T00:36:36.498Z,97.10
2019-05-21T00:39:42.975Z,96.80
2019-05-21T00:42:16.154Z,96.50
2019-05-21T00:44:45.951Z,96.50
2019-05-21T00:47:15.751Z,96.40
2019-05-21T00:49:45.589Z,96.00
2019-05-21T00:52:15.799Z,96.30
2019-05-21T00:54:45.572Z,96.30
2019-05-21T00:57:15.795Z,96.40
2019-05-21T00:59:45.942Z,96.10
2019-05-21T01:02:15.805Z,95.80
2019-05-21T01:04:59.748Z,95.60
2019-05-21T01:07:17.066Z,95.50
2019-05-21T01:09:46.906Z,95.50
2019-05-21T01:12:16.727Z,95.50
2019-05-21T01:14:46.526Z,95.20
2019-05-21T01:17:16.632Z,95.30
2019-05-21T01:19:46.383Z,95.40
2019-05-21T01:22:16.998Z,95.40
2019-05-21T01:24:46.756Z,95.40
2019-05-21T01:27:16.654Z,95.40
2019-05-21T01:29:47.069Z,95.50
2019-05-21T01:32:16.847Z,95.20
2019-05-21T01:34:46.758Z,95.10
2019-05-21T01:37:16.750Z,95.20
2019-05-21T01:39:49.485Z,95.30
2019-05-21T01:42:19.474Z,95.10
2019-05-21T01:44:49.353Z,95.00
2019-05-21T01:47:19.098Z,95.10
2019-05-21T01:49:49.255Z,95.20
2019-05-21T01:52:19.506Z,95.00
2019-05-21T01:54:49.392Z,95.10
2019-05-21T01:57:19.695Z,95.10
2019-05-21T01:59:49.870Z,95.10
2019-05-21T02:02:19.900Z,95.20
2019-05-21T02:04:50.435Z,95.40
2019-05-21T02:07:20.225Z,95.30
2019-05-21T02:09:58.848Z,95.30
2019-05-21T02:12:28.686Z,95.10
2019-05-21T02:14:58.540Z,95.20
2019-05-21T02:17:28.331Z,95.30
2019-05-21T02:19:58.135Z,95.30
2019-05-21T02:22:27.973Z,95.30
2019-05-21T02:24:57.824Z,95.20
2019-05-21T02:27:27.649Z,95.10
2019-05-21T02:29:57.514Z,95.10
2019-05-21T02:32:27.527Z,95.30
2019-05-21T02:34:57.677Z,95.30
2019-05-21T02:37:27.956Z,95.30
2019-05-21T02:39:57.703Z,95.30
2019-05-21T02:42:27.914Z,95.40
2019-05-21T02:45:02.454Z,95.50
2019-05-21T02:47:32.559Z,95.50
2019-05-21T02:50:02.397Z,95.40
2019-05-21T02:52:32.151Z,95.30
2019-05-21T02:55:02.082Z,95.30
2019-05-21T02:57:43.501Z,95.50
2019-05-21T03:00:38.460Z,95.60
2019-05-21T03:03:09.492Z,95.60
2019-05-21T03:05:39.410Z,95.60
2019-05-21T03:08:09.247Z,95.70
2019-05-21T03:10:39.106Z,95.80
2019-05-21T03:13:08.933Z,95.80
2019-05-21T03:15:38.906Z,95.80
2019-05-21T03:18:08.749Z,95.70
2019-05-21T03:20:38.827Z,95.60
2019-05-21T03:23:08.581Z,95.70
2019-05-21T03:25:38.744Z,95.70
2019-05-21T03:28:08.559Z,95.80
2019-05-21T03:30:38.903Z,95.70
2019-05-21T03:33:08.704Z,95.60
2019-05-21T03:35:39.180Z,95.90
2019-05-21T03:38:09.347Z,95.50
2019-05-21T03:40:39.317Z,95.70
2019-05-21T03:43:09.146Z,96.10
2019-05-21T03:45:39.001Z,96.30
2019-05-21T03:48:09.329Z,96.50
2019-05-21T03:50:39.176Z,96.40
2019-05-21T03:53:09.091Z,96.30
2019-05-21T03:55:39.009Z,96.30
2019-05-21T03:58:09.703Z,96.20
2019-05-21T04:00:39.602Z,96.20
2019-05-21T04:03:09.460Z,96.20
2019-05-21T04:05:39.564Z,96.10
2019-05-21T04:08:09.335Z,96.00
2019-05-21T04:10:39.109Z,95.90
2019-05-21T04:13:09.448Z,95.90
2019-05-21T04:15:54.575Z,95.90
2019-05-21T04:18:41.211Z,95.90
2019-05-21T04:21:11.283Z,95.90
2019-05-21T04:23:41.183Z,96.00
2019-05-21T04:26:10.997Z,95.90
2019-05-21T04:28:44.788Z,95.80
2019-05-21T04:31:24.167Z,95.70
2019-05-21T04:33:54.192Z,95.60
2019-05-21T04:36:24.286Z,95.80
2019-05-21T04:45:31.744Z,96.00
2019-05-21T04:48:17.867Z,96.10
2019-05-21T04:57:53.496Z,96.10
2019-05-21T05:00:46.282Z,95.80
2019-05-21T05:03:16.128Z,95.90
2019-05-21T05:05:57.319Z,95.70
2019-05-21T05:08:31.573Z,95.50
2019-05-21T05:11:17.750Z,95.30
2019-05-21T05:13:51.313Z,95.20
2019-05-21T05:16:27.511Z,95.30
2019-05-21T05:18:57.829Z,95.40
2019-05-21T05:21:35.474Z,95.50
2019-05-21T05:24:05.699Z,95.50
2019-05-21T05:27:22.517Z,95.40
2019-05-21T05:29:58.705Z,95.20
2019-05-21T05:33:09.943Z,95.30
2019-05-21T05:35:20.653Z,95.00
2019-05-21T05:37:56.068Z,94.90
2019-05-21T05:40:32.376Z,95.00
2019-05-21T05:46:13.477Z,94.90
2019-05-21T05:48:45.119Z,95.00
2019-05-21T05:51:24.635Z,94.90
2019-05-21T05:54:00.600Z,94.80
2019-05-21T05:56:37.694Z,94.80
2019-05-21T05:59:07.848Z,94.80
2019-05-21T06:01:39.201Z,94.90
2019-05-21T06:04:09.475Z,94.90
2019-05-21T06:06:41.428Z,94.70
2019-05-21T06:09:13.037Z,94.10
2019-05-21T06:11:45.387Z,93.70
2019-05-21T06:14:20.697Z,93.80
2019-05-21T06:17:00.541Z,93.80
2019-05-21T06:19:43.774Z,93.10
2019-05-21T06:22:23.996Z,93.20
2019-05-21T06:25:09.070Z,93.20
2019-05-21T06:27:35.174Z,93.00
2019-05-21T06:30:08.915Z,93.10
2019-05-21T06:33:17.450Z,92.90
2019-05-21T06:35:29.169Z,92.80
2019-05-21T06:38:16.598Z,92.50
2019-05-21T06:40:42.394Z,92.40
2019-05-21T06:43:45.144Z,91.90
2019-05-21T06:46:19.173Z,91.60
2019-05-21T06:48:57.502Z,91.30
2019-05-21T06:51:35.705Z,91.70
2019-05-21T06:54:08.674Z,91.70
2019-05-21T06:56:39.525Z,92.00
2019-05-21T06:59:25.589Z,91.60
2019-05-21T07:01:54.250Z,91.20
2019-05-21T07:04:44.521Z,91.30
2019-05-21T07:07:23.118Z,91.90
2019-05-21T07:10:07.812Z,92.40
2019-05-21T07:12:46.851Z,92.40
2019-05-21T07:15:22.356Z,92.40
2019-05-21T07:17:55.205Z,92.30
2019-05-21T07:20:37.065Z,92.10
2019-05-21T07:23:11.658Z,92.20
2019-05-21T07:25:47.597Z,92.10
2019-05-21T07:28:25.122Z,91.90
2019-05-21T07:30:58.361Z,91.70
2019-05-21T07:33:36.049Z,91.40
2019-05-21T07:36:06.676Z,91.80
2019-05-21T07:38:52.620Z,91.50
2019-05-21T07:41:10.466Z,91.50
2019-05-21T07:43:40.196Z,91.60
2019-05-21T07:46:10.048Z,91.50
2019-05-21T07:48:39.721Z,91.30
2019-05-21T07:51:09.460Z,90.90
2019-05-21T07:53:39.238Z,90.40
2019-05-21T07:56:08.944Z,90.50
2019-05-21T07:58:38.615Z,90.20
2019-05-21T08:01:08.348Z,90.20
2019-05-21T08:03:38.070Z,89.40
2019-05-21T08:06:07.829Z,89.30
2019-05-21T08:08:37.788Z,89.30
2019-05-21T08:11:08.020Z,88.20
2019-05-21T08:13:37.814Z,88.40
2019-05-21T08:16:07.494Z,87.90
2019-05-21T08:18:37.289Z,87.30
2019-05-21T08:21:07.230Z,86.00
2019-05-21T08:23:36.960Z,86.20
2019-05-21T08:26:06.698Z,84.80
2019-05-21T08:28:36.632Z,84.70
2019-05-21T08:31:06.498Z,84.50
2019-05-21T08:33:40.102Z,84.40
2019-05-21T08:36:19.030Z,85.00
2019-05-21T08:38:53.107Z,83.80
2019-05-21T08:41:28.154Z,83.70
2019-05-21T08:43:58.896Z,86.70
2019-05-21T08:46:28.716Z,87.40
2019-05-21T08:48:58.574Z,88.40
2019-05-21T08:51:29.042Z,89.20
2019-05-21T08:53:58.773Z,88.80
2019-05-21T08:56:28.560Z,88.00
2019-05-21T08:58:58.614Z,88.80
2019-05-21T09:01:28.528Z,88.70
2019-05-21T09:03:58.604Z,88.60
2019-05-21T09:06:28.639Z,87.70
2019-05-21T09:08:59.271Z,87.20
2019-05-21T09:11:29.083Z,87.30
2019-05-21T09:13:59.127Z,87.50
2019-05-21T09:16:28.894Z,86.50
2019-05-21T09:18:58.965Z,86.50
2019-05-21T09:21:28.778Z,85.30
2019-05-21T09:23:58.556Z,85.50
2019-05-21T09:26:28.642Z,85.50
2019-05-21T09:28:58.431Z,85.20
2019-05-21T09:31:28.457Z,85.20
2019-05-21T09:33:58.526Z,85.90
2019-05-21T09:36:28.437Z,86.40
2019-05-21T09:38:58.201Z,87.20
2019-05-21T09:41:27.885Z,87.30
2019-05-21T09:43:58.206Z,87.80
2019-05-21T09:46:28.126Z,88.70
2019-05-21T09:48:57.856Z,88.40
2019-05-21T09:51:27.652Z,88.70
2019-05-21T09:53:57.444Z,89.10
2019-05-21T09:56:34.649Z,88.70
2019-05-21T09:59:13.151Z,89.30
2019-05-21T10:01:47.956Z,89.00
2019-05-21T10:04:16.726Z,89.70
2019-05-21T10:06:46.475Z,90.10
2019-05-21T10:09:17.842Z,90.30
2019-05-21T10:11:49.133Z,90.30
2019-05-21T10:14:19.142Z,90.10
2019-05-21T10:16:48.874Z,90.40
2019-05-21T10:19:18.666Z,90.30
2019-05-21T10:21:48.396Z,90.20
2019-05-21T10:24:18.238Z,90.00
2019-05-21T10:26:48.023Z,89.20
2019-05-21T10:29:17.790Z,89.10
2019-05-21T10:31:50.722Z,89.00
2019-05-21T10:34:20.808Z,89.60
2019-05-21T10:36:50.807Z,90.20
2019-05-21T10:39:20.880Z,90.40
2019-05-21T10:41:50.784Z,90.30
2019-05-21T10:44:20.523Z,90.10
2019-05-21T10:46:50.338Z,90.00
2019-05-21T10:49:20.661Z,90.40
2019-05-21T10:51:50.366Z,90.20
2019-05-21T10:54:20.180Z,89.70
2019-05-21T10:56:49.988Z,89.50
2019-05-21T10:59:19.826Z,88.40
2019-05-21T11:01:53.843Z,86.80
2019-05-21T11:04:25.574Z,87.40
2019-05-21T11:06:55.382Z,87.30
2019-05-21T11:09:25.743Z,88.30
2019-05-21T11:11:55.486Z,88.90
2019-05-21T11:14:25.559Z,88.80
2019-05-21T11:16:55.380Z,87.80
2019-05-21T11:19:26.264Z,87.50
2019-05-21T11:21:56.417Z,87.50
2019-05-21T11:24:26.529Z,88.00
2019-05-21T11:26:56.213Z,87.30
2019-05-21T11:29:26.020Z,86.60
2019-05-21T11:31:57.690Z,86.80
2019-05-21T11:34:27.262Z,86.90
2019-05-21T11:36:57.087Z,86.70
2019-05-21T11:39:27.417Z,87.10
2019-05-21T11:41:57.202Z,86.40
2019-05-21T11:44:27.143Z,86.70
2019-05-21T11:46:57.005Z,86.90
2019-05-21T11:49:27.029Z,86.30
2019-05-21T11:51:56.862Z,86.30
2019-05-21T11:54:26.594Z,87.10
2019-05-21T11:56:56.385Z,87.50
2019-05-21T11:59:26.138Z,87.90
2019-05-21T12:01:55.938Z,88.30
2019-05-21T12:04:25.777Z,88.50
2019-05-21T12:06:57.104Z,88.70
2019-05-21T12:09:26.819Z,88.90
2019-05-21T12:11:56.585Z,88.40
2019-05-21T12:14:26.343Z,88.00
2019-05-21T12:16:56.475Z,87.80
2019-05-21T12:19:26.187Z,87.50
2019-05-21T12:21:56.167Z,87.50
2019-05-21T12:24:27.628Z,87.40
2019-05-21T12:26:57.740Z,86.80
2019-05-21T12:29:27.510Z,86.80
2019-05-21T12:31:57.979Z,86.80
2019-05-21T12:34:27.729Z,87.00
2019-05-21T12:36:57.892Z,86.70
2019-05-21T12:39:27.677Z,86.70
2019-05-21T12:41:57.519Z,87.10
2019-05-21T12:44:27.375Z,87.80
2019-05-21T12:46:57.117Z,88.30
2019-05-21T12:49:27.283Z,89.50
2019-05-21T12:51:57.130Z,89.80
2019-05-21T12:54:27.142Z,90.20
2019-05-21T12:56:56.873Z,90.20
2019-05-21T12:59:26.638Z,90.40
2019-05-21T13:01:56.440Z,90.30
2019-05-21T13:04:26.257Z,90.00
2019-05-21T13:06:56.025Z,90.30
2019-05-21T13:09:32.651Z,90.10
2019-05-21T13:11:57.284Z,90.00
2019-05-21T13:14:27.043Z,90.00
2019-05-21T13:16:56.894Z,89.80
2019-05-21T13:19:26.708Z,89.60
2019-05-21T13:21:56.522Z,88.90
2019-05-21T13:24:26.733Z,89.00
2019-05-21T13:26:56.500Z,89.00
2019-05-21T13:29:26.553Z,88.60
2019-05-21T13:31:56.451Z,88.80
2019-05-21T13:34:27.004Z,88.60
2019-05-21T13:36:57.103Z,88.30
2019-05-21T13:39:27.119Z,87.90
2019-05-21T13:41:56.861Z,88.10
2019-05-21T13:44:26.751Z,87.50
2019-05-21T13:46:56.726Z,87.80
2019-05-21T13:49:27.044Z,88.20
2019-05-21T13:51:57.278Z,88.40
2019-05-21T13:54:27.280Z,88.80
2019-05-21T13:56:57.115Z,89.20
2019-05-21T13:59:27.403Z,89.60
2019-05-21T14:01:57.416Z,90.00
2019-05-21T14:04:27.197Z,90.00
2019-05-21T14:06:57.135Z,90.20
2019-05-21T14:09:28.722Z,90.20
2019-05-21T14:11:59.125Z,90.10
2019-05-21T14:14:29.417Z,90.10
2019-05-21T14:16:59.732Z,90.00
2019-05-21T14:19:29.468Z,89.60
2019-05-21T14:21:59.355Z,89.60
2019-05-21T14:24:29.592Z,89.90
2019-05-21T14:26:59.829Z,89.80
2019-05-21T14:29:29.602Z,90.00
2019-05-21T14:31:59.848Z,89.90
2019-05-21T14:34:29.841Z,90.10
2019-05-21T14:37:01.106Z,90.30
2019-05-21T14:39:31.252Z,90.50
2019-05-21T14:42:01.106Z,90.90
2019-05-21T14:44:30.947Z,90.90
2019-05-21T14:47:03.269Z,91.00
2019-05-21T14:49:33.094Z,91.10
2019-05-21T14:52:03.185Z,91.00
2019-05-21T14:54:33.366Z,90.90
2019-05-21T14:57:05.888Z,91.00
2019-05-21T15:02:49.087Z,91.10
2019-05-21T15:05:19.193Z,91.20
2019-05-21T15:07:55.067Z,91.30
2019-05-21T15:10:47.215Z,91.30
2019-05-21T15:13:08.759Z,91.30
2019-05-21T15:15:36.803Z,91.40
2019-05-21T15:18:06.796Z,91.40
2019-05-21T15:20:47.093Z,91.30
2019-05-21T15:23:16.890Z,91.50
2019-05-21T15:25:47.074Z,91.40
2019-05-21T15:28:17.124Z,91.20
2019-05-21T15:30:48.797Z,90.90
2019-05-21T15:33:18.574Z,91.10
2019-05-21T15:35:49.819Z,91.00
2019-05-21T15:38:21.155Z,90.90
2019-05-21T15:41:08.415Z,90.90
2019-05-21T15:43:22.969Z,90.90
2019-05-21T15:45:52.832Z,90.90
2019-05-21T15:48:26.330Z,91.00
2019-05-21T15:51:04.650Z,90.80
2019-05-21T15:53:55.375Z,90.90
2019-05-21T15:56:25.233Z,90.80
2019-05-21T15:59:05.379Z,91.00
2019-05-21T16:01:40.568Z,91.00
2019-05-21T16:04:16.079Z,91.10
2019-05-21T16:06:44.420Z,91.20
2019-05-21T16:09:14.152Z,91.10
2019-05-21T16:11:43.998Z,91.10
2019-05-21T16:14:13.803Z,91.10
2019-05-21T16:16:46.671Z,91.40
2019-05-21T16:19:16.480Z,91.60
2019-05-21T16:21:50.600Z,91.60
2019-05-21T16:24:20.411Z,91.60
2019-05-21T16:26:50.139Z,91.70
2019-05-21T16:29:19.831Z,91.60
2019-05-21T16:31:49.945Z,91.40
2019-05-21T16:34:19.667Z,91.30
2019-05-21T16:36:49.477Z,91.60
2019-05-21T16:39:21.226Z,91.50
2019-05-21T16:41:51.024Z,91.50
2019-05-21T16:44:20.825Z,91.60
2019-05-21T16:46:50.621Z,91.60
2019-05-21T16:49:20.423Z,91.70
2019-05-21T16:51:50.225Z,91.80
2019-05-21T16:54:20.019Z,92.00
2019-05-21T16:56:50.314Z,92.00
2019-05-21T16:59:22.183Z,92.10
2019-05-21T17:01:52.149Z,92.20
2019-05-21T17:04:21.991Z,92.20
2019-05-21T17:06:58.181Z,92.30
2019-05-21T17:09:28.446Z,92.20
2019-05-21T17:12:00.329Z,92.20
2019-05-21T17:14:30.672Z,92.20
2019-05-21T17:17:00.797Z,92.40
2019-05-21T17:19:30.935Z,92.50
2019-05-21T17:22:00.929Z,92.60
2019-05-21T17:24:33.022Z,92.30
2019-05-21T17:27:10.133Z,92.50
2019-05-21T17:29:40.275Z,92.30
2019-05-21T17:32:10.253Z,92.40
2019-05-21T17:34:47.894Z,92.50
2019-05-21T17:37:19.024Z,92.90
2019-05-21T17:39:49.182Z,92.80
2019-05-21T17:42:19.041Z,92.70
2019-05-21T17:44:49.010Z,92.60
2019-05-21T17:47:19.227Z,92.60
2019-05-21T17:49:49.151Z,92.50
2019-05-21T17:52:19.570Z,92.60
2019-05-21T17:54:56.769Z,92.50
2019-05-21T17:57:22.079Z,92.60
2019-05-21T17:59:52.051Z,92.50
2019-05-21T18:02:23.197Z,92.60
2019-05-21T18:04:56.997Z,92.70
2019-05-21T18:07:26.852Z,92.60
2019-05-21T18:10:00.654Z,92.70
2019-05-21T18:12:32.358Z,92.70
2019-05-21T18:15:06.734Z,92.90
2019-05-21T18:17:37.549Z,92.90
2019-05-21T18:20:08.546Z,92.80
2019-05-21T18:22:40.161Z,92.80
2019-05-21T18:25:14.272Z,92.90
2019-05-21T18:27:44.746Z,93.00
2019-05-21T18:30:15.883Z,93.00
2019-05-21T18:32:45.852Z,92.80
2019-05-21T18:35:16.086Z,92.90
2019-05-21T18:37:55.707Z,93.10
2019-05-21T18:40:26.652Z,93.20
2019-05-21T18:42:56.638Z,93.00
2019-05-21T18:45:26.414Z,92.80
2019-05-21T18:48:00.727Z,92.90
2019-05-21T18:50:36.254Z,93.00
2019-05-21T18:53:01.851Z,93.00
2019-05-21T18:55:31.751Z,92.90
2019-05-21T18:58:01.586Z,93.00
2019-05-21T19:00:31.859Z,93.20
2019-05-21T19:03:04.897Z,93.10
2019-05-21T19:05:35.145Z,93.10
2019-05-21T19:08:09.726Z,93.10
2019-05-21T19:10:42.519Z,93.10
2019-05-21T19:13:12.407Z,93.20
2019-05-21T19:15:42.713Z,93.30
2019-05-21T19:18:12.529Z,93.50
2019-05-21T19:20:42.263Z,93.40
2019-05-21T19:23:12.253Z,93.40
2019-05-21T19:25:41.988Z,93.40
2019-05-21T19:28:11.949Z,93.50
2019-05-21T19:30:42.027Z,93.70
2019-05-21T19:33:12.487Z,93.80
2019-05-21T19:35:42.282Z,93.70
2019-05-21T19:38:11.972Z,93.60
2019-05-21T19:40:41.772Z,93.80
2019-05-21T19:43:14.093Z,93.80
2019-05-21T19:45:43.944Z,94.00
2019-05-21T19:48:13.765Z,93.70
2019-05-21T19:50:43.869Z,93.80
2019-05-21T19:53:13.618Z,94.00
2019-05-21T19:55:47.191Z,93.80
2019-05-21T19:58:17.073Z,93.90
2019-05-21T20:00:48.583Z,94.10
2019-05-21T20:03:19.126Z,94.10
2019-05-21T20:05:50.593Z,94.20
2019-05-21T20:08:20.624Z,94.40
2019-05-21T20:10:53.219Z,94.40
2019-05-21T20:13:32.258Z,94.40
2019-05-21T20:15:55.855Z,94.40
2019-05-21T20:18:26.094Z,94.50
2019-05-21T20:20:57.117Z,94.60
2019-05-21T20:23:27.178Z,94.60
2019-05-21T20:25:57.321Z,94.70
2019-05-21T20:28:27.232Z,94.80
2019-05-21T20:30:57.468Z,94.90
2019-05-21T20:33:28.435Z,95.00
2019-05-21T20:35:59.011Z,95.10
2019-05-21T20:38:29.637Z,95.20
2019-05-21T20:40:59.410Z,95.30
2019-05-21T20:43:29.273Z,95.30
2019-05-21T20:45:59.875Z,95.30
2019-05-21T20:48:37.450Z,95.30
2019-05-21T20:51:09.138Z,95.50
2019-05-21T20:53:39.083Z,95.40
2019-05-21T20:56:09.140Z,95.40
2019-05-21T20:58:39.402Z,95.40
2019-05-21T21:01:09.589Z,95.50
2019-05-21T21:03:40.732Z,95.40
2019-05-21T21:06:12.691Z,95.40
2019-05-21T21:08:44.615Z,95.40
2019-05-21T21:11:15.688Z,95.30
2019-05-21T21:13:46.145Z,95.50
2019-05-21T21:16:16.622Z,95.50
2019-05-21T21:18:48.439Z,95.50
2019-05-21T21:21:18.902Z,95.60
2019-05-21T21:23:50.657Z,95.70
2019-05-21T21:26:20.925Z,95.70
2019-05-21T21:28:50.758Z,95.80
2019-05-21T21:31:20.855Z,96.00
2019-05-21T21:33:57.317Z,96.20
2019-05-21T21:36:28.694Z,96.10
2019-05-21T21:38:59.694Z,96.00
2019-05-21T21:41:30.061Z,96.20
2019-05-21T21:44:00.098Z,96.10
2019-05-21T21:46:29.830Z,96.30
2019-05-21T21:49:00.225Z,96.60
2019-05-21T21:51:30.089Z,96.40
2019-05-21T21:54:00.267Z,96.40
2019-05-21T21:56:31.333Z,96.40
2019-05-21T21:59:01.297Z,96.40
2019-05-21T22:01:41.765Z,96.40
2019-05-21T22:04:14.025Z,96.10
2019-05-21T22:06:45.920Z,96.40
2019-05-21T22:09:18.165Z,96.40
2019-05-21T22:11:49.330Z,96.60
2019-05-21T22:14:19.443Z,96.70
2019-05-21T22:16:51.828Z,96.70
2019-05-21T22:19:23.085Z,96.70
2019-05-21T22:21:53.199Z,96.80
2019-05-21T22:24:23.683Z,96.90
2019-05-21T22:26:53.979Z,96.80
2019-05-21T22:29:23.873Z,96.80
2019-05-21T22:31:53.735Z,96.80
2019-05-21T22:34:23.802Z,97.00
2019-05-21T22:36:53.710Z,97.30
2019-05-21T22:39:24.044Z,97.00
2019-05-21T22:41:53.893Z,97.00
2019-05-21T22:44:23.708Z,97.10
2019-05-21T22:46:53.560Z,96.90
2019-05-21T22:49:23.722Z,97.00
2019-05-21T22:51:53.493Z,97.10
2019-05-21T22:54:23.639Z,97.20
2019-05-21T22:56:53.424Z,97.50
2019-05-21T22:59:23.186Z,97.50
2019-05-21T23:01:55.070Z,97.60
2019-05-21T23:04:25.492Z,97.50
2019-05-21T23:06:55.349Z,97.50
2019-05-21T23:09:25.107Z,97.50
2019-05-21T23:11:55.281Z,97.60
2019-05-21T23:14:25.264Z,97.20
2019-05-21T23:16:55.626Z,97.30
2019-05-21T23:19:27.017Z,97.20
2019-05-21T23:21:57.950Z,97.40
2019-05-21T23:24:29.681Z,97.60
2019-05-21T23:26:59.507Z,97.60
2019-05-21T23:29:29.336Z,97.50
2019-05-21T23:31:59.167Z,97.60
2019-05-21T23:34:31.651Z,97.50
2019-05-21T23:37:02.712Z,97.50
2019-05-21T23:39:34.163Z,97.40
2019-05-21T23:42:05.920Z,97.40
2019-05-21T23:44:36.281Z,97.30
2019-05-21T23:47:08.360Z,97.40
2019-05-21T23:49:38.845Z,97.40
2019-05-21T23:52:08.730Z,97.40
2019-05-21T23:54:38.471Z,97.40
2019-05-21T23:57:10.530Z,97.30
2019-05-21T23:59:41.060Z,97.20
